Time;durP1;ratioP1;P1;durP2;ratioP2;P2;SDS_P1;SDS_P2;PMS_P1;PMS_P2;Temp;Humidity;BMP_temperature;BMP_pressure;BME280_temperature;BME280_humidity;BME280_pressure;Samples;Min_cycle;Max_cycle;Signal;HPM_P1;HPM_P2
2023/07/26 00:00:30;;;;;;;0.10;0.10;;;;;;;14.74;100.00;98568.84;5116428;28;20197;-56
2023/07/26 00:03:18;;;;;;;0.10;0.10;;;;;;;14.54;100.00;98572.47;5116300;28;20185;-56
2023/07/26 00:06:05;;;;;;;0.10;0.10;;;;;;;14.76;100.00;98574.03;5116136;28;20199;-55
2023/07/26 00:08:52;;;;;;;0.10;0.10;;;;;;;14.78;100.00;98574.78;5115343;28;20270;-56
2023/07/26 00:11:39;;;;;;;0.10;0.10;;;;;;;14.71;100.00;98581.63;5116206;28;20198;-56
2023/07/26 00:14:26;;;;;;;0.10;0.10;;;;;;;14.73;100.00;98582.31;5115926;28;20276;-56
2023/07/26 00:17:13;;;;;;;0.10;0.10;;;;;;;14.71;100.00;98576.31;5115977;28;20202;-56
2023/07/26 00:20:01;;;;;;;0.20;0.20;;;;;;;14.34;100.00;98576.88;5116085;28;20201;-56
2023/07/26 00:22:48;;;;;;;0.10;0.10;;;;;;;14.10;100.00;98585.25;5115912;28;20702;-56
2023/07/26 00:25:35;;;;;;;0.10;0.10;;;;;;;14.15;100.00;98583.00;5114613;28;20189;-56
2023/07/26 00:28:21;;;;;;;0.10;0.10;;;;;;;14.32;100.00;98584.19;5115726;28;20206;-56
2023/07/26 00:31:09;;;;;;;0.10;0.10;;;;;;;14.24;100.00;98586.69;5115575;28;20241;-56
2023/07/26 00:33:56;;;;;;;0.10;0.10;;;;;;;14.30;100.00;98583.47;5114318;28;20229;-55
2023/07/26 00:36:44;;;;;;;0.10;0.10;;;;;;;14.27;100.00;98581.91;5115624;28;20519;-55
2023/07/26 00:39:30;;;;;;;0.10;0.10;;;;;;;14.24;100.00;98581.34;5112995;28;20190;-56
2023/07/26 00:42:18;;;;;;;0.10;0.10;;;;;;;14.03;100.00;98587.59;5114465;28;20194;-56
2023/07/26 00:45:06;;;;;;;0.10;0.10;;;;;;;14.10;100.00;98601.22;5114029;28;20224;-56
2023/07/26 00:47:56;;;;;;;0.10;0.10;;;;;;;14.04;100.00;98601.75;5115359;28;20194;-55
2023/07/26 00:50:45;;;;;;;0.10;0.10;;;;;;;13.92;100.00;98600.16;5115465;28;20186;-56
2023/07/26 00:53:34;;;;;;;0.10;0.10;;;;;;;13.78;100.00;98603.16;5114199;28;20218;-56
2023/07/26 00:56:22;;;;;;;0.10;0.10;;;;;;;13.66;100.00;98605.88;5115241;28;20220;-56
2023/07/26 00:59:10;;;;;;;0.10;0.10;;;;;;;13.47;100.00;98613.75;5115234;28;20255;-56
2023/07/26 01:01:57;;;;;;;0.10;0.10;;;;;;;13.53;100.00;98607.09;5115287;28;20675;-56
2023/07/26 01:04:44;;;;;;;0.10;0.10;;;;;;;13.84;100.00;98608.81;5115146;28;20194;-56
2023/07/26 01:07:41;;;;;;;0.10;0.10;;;;;;;13.61;100.00;98612.59;5115015;28;20220;-56
2023/07/26 01:10:36;;;;;;;0.10;0.10;;;;;;;13.78;100.00;98611.97;5113758;28;20193;-56
2023/07/26 01:13:32;;;;;;;0.10;0.10;;;;;;;13.85;100.00;98614.97;5114825;28;20235;-55
2023/07/26 01:16:20;;;;;;;0.10;0.10;;;;;;;13.92;100.00;98619.63;5114850;28;20334;-55
2023/07/26 01:19:06;;;;;;;0.10;0.10;;;;;;;13.60;100.00;98621.53;5113708;28;20313;-56
2023/07/26 01:21:54;;;;;;;0.10;0.10;;;;;;;13.45;100.00;98616.53;5114835;28;20296;-56
2023/07/26 01:24:41;;;;;;;0.10;0.10;;;;;;;13.39;100.00;98618.88;5113316;28;20308;-56
2023/07/26 01:27:28;;;;;;;0.17;0.17;;;;;;;13.27;100.00;98626.06;5114417;28;20198;-56
2023/07/26 01:30:16;;;;;;;0.10;0.10;;;;;;;13.31;100.00;98632.81;5114557;28;20202;-56
2023/07/26 01:33:06;;;;;;;0.20;0.20;;;;;;;13.31;100.00;98627.50;5114447;28;20299;-56
2023/07/26 01:35:54;;;;;;;0.20;0.20;;;;;;;13.29;100.00;98634.75;5113300;28;20190;-56
2023/07/26 01:38:44;;;;;;;0.10;0.10;;;;;;;13.37;100.00;98634.13;5114405;28;20680;-56
2023/07/26 01:41:32;;;;;;;0.10;0.10;;;;;;;13.30;100.00;98630.28;5113396;28;20194;-55
2023/07/26 01:44:19;;;;;;;0.17;0.17;;;;;;;13.41;100.00;98636.41;5114199;28;20190;-56
2023/07/26 01:47:06;;;;;;;0.10;0.10;;;;;;;13.22;100.00;98635.38;5114282;28;20198;-56
2023/07/26 01:49:53;;;;;;;0.10;0.10;;;;;;;13.04;100.00;98635.94;5114301;28;20193;-56
2023/07/26 01:52:40;;;;;;;0.10;0.10;;;;;;;12.99;100.00;98647.91;5113046;28;20217;-56
2023/07/26 01:55:29;;;;;;;0.10;0.10;;;;;;;13.07;100.00;98641.00;5112820;28;20202;-56
2023/07/26 01:58:16;;;;;;;0.20;0.20;;;;;;;13.00;100.00;98652.25;5112734;28;20197;-56
2023/07/26 02:01:04;;;;;;;0.10;0.10;;;;;;;12.97;100.00;98649.84;5112983;28;20195;-56
2023/07/26 02:03:51;;;;;;;0.10;0.10;;;;;;;12.86;100.00;98650.72;5113077;28;20276;-55
2023/07/26 02:06:38;;;;;;;0.10;0.10;;;;;;;12.81;100.00;98647.59;5112952;28;20243;-56
2023/07/26 02:09:25;;;;;;;0.10;0.10;;;;;;;12.68;100.00;98647.75;5111393;28;20214;-55
2023/07/26 02:12:13;;;;;;;0.10;0.10;;;;;;;12.60;100.00;98648.38;5112791;28;20197;-55
2023/07/26 02:15:00;;;;;;;0.10;0.10;;;;;;;12.54;100.00;98656.81;5113372;28;20257;-56
2023/07/26 02:17:47;;;;;;;0.10;0.10;;;;;;;12.49;100.00;98656.34;5113871;28;20190;-56
2023/07/26 02:20:34;;;;;;;0.10;0.10;;;;;;;12.33;100.00;98653.22;5113664;28;20190;-56
2023/07/26 02:23:21;;;;;;;0.10;0.10;;;;;;;12.21;100.00;98656.84;5113652;28;20190;-56
2023/07/26 02:26:09;;;;;;;0.10;0.10;;;;;;;12.29;100.00;98657.94;5112656;28;20264;-56
2023/07/26 02:28:57;;;;;;;0.10;0.10;;;;;;;12.42;100.00;98662.28;5112543;28;20239;-56
2023/07/26 02:31:44;;;;;;;0.20;0.20;;;;;;;12.25;100.00;98667.09;5112615;28;20236;-56
2023/07/26 02:34:31;;;;;;;0.10;0.10;;;;;;;12.24;100.00;98667.22;5112132;28;20229;-56
2023/07/26 02:37:18;;;;;;;0.10;0.10;;;;;;;12.37;100.00;98664.47;5113375;28;20236;-55
2023/07/26 02:40:05;;;;;;;0.10;0.10;;;;;;;12.50;100.00;98670.47;5112179;28;20213;-56
2023/07/26 02:42:52;;;;;;;0.10;0.10;;;;;;;12.18;100.00;98670.38;5113443;28;20189;-56
2023/07/26 02:45:43;;;;;;;0.10;0.10;;;;;;;12.23;100.00;98670.84;5113341;28;20195;-56
2023/07/26 02:48:30;;;;;;;0.10;0.10;;;;;;;12.32;100.00;98675.44;5113451;28;20198;-56
2023/07/26 02:51:18;;;;;;;0.10;0.10;;;;;;;12.35;100.00;98674.34;5112417;28;20199;-56
2023/07/26 02:54:05;;;;;;;0.10;0.10;;;;;;;12.17;100.00;98677.50;5111849;28;20217;-55
2023/07/26 02:56:52;;;;;;;0.10;0.10;;;;;;;12.12;100.00;98678.81;5112405;28;20194;-56
2023/07/26 02:59:39;;;;;;;0.10;0.10;;;;;;;12.17;100.00;98692.59;5113217;28;20228;-56
2023/07/26 03:02:27;;;;;;;0.10;0.10;;;;;;;12.03;100.00;98693.63;5112160;28;20260;-56
2023/07/26 03:05:14;;;;;;;0.10;0.10;;;;;;;11.99;100.00;98687.72;5111945;28;20194;-55
2023/07/26 03:08:01;;;;;;;0.10;0.10;;;;;;;12.02;100.00;98695.44;5114777;28;20198;-56
2023/07/26 03:10:51;;;;;;;0.10;0.10;;;;;;;12.20;100.00;98685.22;5115984;28;20209;-56
2023/07/26 03:13:38;;;;;;;0.10;0.10;;;;;;;12.25;100.00;98696.31;5116245;28;20252;-55
2023/07/26 03:16:25;;;;;;;0.10;0.10;;;;;;;12.30;100.00;98698.63;5117234;28;20231;-56
2023/07/26 03:19:13;;;;;;;0.10;0.10;;;;;;;12.36;100.00;98694.66;5116071;28;20224;-56
2023/07/26 03:21:59;;;;;;;0.10;0.10;;;;;;;12.45;100.00;98692.09;5117120;28;20280;-55
2023/07/26 03:24:46;;;;;;;0.10;0.10;;;;;;;12.41;100.00;98701.25;5115753;28;20309;-56
2023/07/26 03:27:33;;;;;;;0.10;0.10;;;;;;;12.48;100.00;98704.28;5115996;28;20190;-56
2023/07/26 03:30:20;;;;;;;0.20;0.20;;;;;;;12.46;100.00;98714.19;5115964;28;20244;-56
2023/07/26 03:33:08;;;;;;;0.10;0.10;;;;;;;12.36;100.00;98714.09;5116959;28;20736;-56
2023/07/26 03:35:57;;;;;;;0.10;0.10;;;;;;;12.43;100.00;98715.25;5115907;28;20708;-56
2023/07/26 03:38:44;;;;;;;0.10;0.10;;;;;;;12.56;100.00;98715.16;5115226;28;20262;-56
2023/07/26 03:41:32;;;;;;;0.10;0.10;;;;;;;12.47;100.00;98714.06;5116727;28;20668;-55
2023/07/26 03:44:19;;;;;;;0.10;0.10;;;;;;;13.10;100.00;98709.03;5116758;28;20243;-56
2023/07/26 03:47:08;;;;;;;0.10;0.10;;;;;;;12.72;100.00;98709.44;5115233;28;20210;-56
2023/07/26 03:49:59;;;;;;;0.20;0.20;;;;;;;12.85;100.00;98702.19;5116607;28;20206;-56
2023/07/26 03:52:47;;;;;;;0.10;0.10;;;;;;;12.97;100.00;98705.69;5116540;28;20198;-56
2023/07/26 03:55:34;;;;;;;0.10;0.10;;;;;;;12.92;100.00;98707.84;5113688;28;20252;-56
2023/07/26 03:58:21;;;;;;;0.10;0.10;;;;;;;12.76;100.00;98711.75;5116425;28;20226;-56
2023/07/26 04:01:08;;;;;;;0.10;0.10;;;;;;;12.74;100.00;98719.00;5116488;28;20190;-56
2023/07/26 04:03:55;;;;;;;0.10;0.10;;;;;;;13.07;100.00;98707.47;5116254;28;20193;-56
2023/07/26 04:06:42;;;;;;;0.10;0.10;;;;;;;13.11;100.00;98714.22;5116211;28;20241;-56
2023/07/26 04:09:30;;;;;;;0.20;0.20;;;;;;;13.17;100.00;98711.06;5113929;28;20324;-55
2023/07/26 04:12:18;;;;;;;0.20;0.20;;;;;;;13.43;100.00;98718.75;5116023;28;20270;-56
2023/07/26 04:15:05;;;;;;;0.20;0.20;;;;;;;13.02;100.00;98717.59;5115927;28;20242;-56
2023/07/26 04:17:51;;;;;;;0.10;0.10;;;;;;;13.03;100.00;98723.81;5115983;28;20201;-56
2023/07/26 04:20:38;;;;;;;0.20;0.20;;;;;;;13.17;100.00;98719.03;5114956;28;20189;-56
2023/07/26 04:23:25;;;;;;;0.10;0.10;;;;;;;12.80;100.00;98729.13;5115986;28;20327;-56
2023/07/26 04:26:14;;;;;;;0.10;0.10;;;;;;;12.81;100.00;98729.97;5115844;28;20260;-56
2023/07/26 04:29:01;;;;;;;0.10;0.10;;;;;;;13.32;100.00;98737.41;5115676;28;20251;-56
2023/07/26 04:31:48;;;;;;;0.20;0.20;;;;;;;13.11;100.00;98732.81;5115753;28;20240;-55
2023/07/26 04:34:35;;;;;;;0.10;0.10;;;;;;;12.99;100.00;98738.28;5115312;28;20268;-56
2023/07/26 04:37:22;;;;;;;0.10;0.10;;;;;;;12.80;100.00;98738.94;5115524;28;20256;-57
2023/07/26 04:40:10;;;;;;;0.17;0.17;;;;;;;12.80;100.00;98741.59;5114280;28;20201;-57
2023/07/26 04:42:58;;;;;;;0.10;0.10;;;;;;;12.71;100.00;98742.31;5115410;28;20190;-56
2023/07/26 04:45:46;;;;;;;0.10;0.10;;;;;;;12.77;100.00;98749.81;5115281;28;20253;-56
2023/07/26 04:48:33;;;;;;;0.17;0.17;;;;;;;12.85;100.00;98764.19;5115535;28;20197;-56
2023/07/26 04:51:21;;;;;;;0.10;0.10;;;;;;;13.28;100.00;98759.91;5115293;28;20190;-57
2023/07/26 04:54:08;;;;;;;0.10;0.10;;;;;;;13.24;100.00;98758.47;5113741;28;20271;-56
2023/07/26 04:56:55;;;;;;;0.20;0.20;;;;;;;13.42;100.00;98756.97;5115237;28;20221;-56
2023/07/26 04:59:43;;;;;;;0.10;0.10;;;;;;;13.31;100.00;98757.81;5115416;28;20201;-56
2023/07/26 05:02:30;;;;;;;0.10;0.10;;;;;;;13.14;100.00;98753.88;5114485;28;20187;-57
2023/07/26 05:05:17;;;;;;;0.10;0.10;;;;;;;13.24;100.00;98755.81;5115180;28;20190;-56
2023/07/26 05:08:06;;;;;;;0.20;0.20;;;;;;;13.16;100.00;98756.41;5114895;28;20191;-57
2023/07/26 05:10:53;;;;;;;0.10;0.10;;;;;;;13.03;100.00;98769.84;5113474;28;20195;-56
2023/07/26 05:13:39;;;;;;;0.20;0.20;;;;;;;13.09;100.00;98765.81;5115042;28;20251;-57
2023/07/26 05:16:28;;;;;;;0.10;0.10;;;;;;;13.14;100.00;98775.13;5114620;28;20339;-56
2023/07/26 05:19:15;;;;;;;0.20;0.20;;;;;;;13.04;100.00;98770.69;5114769;28;20186;-57
2023/07/26 05:22:02;;;;;;;0.20;0.20;;;;;;;13.11;100.00;98767.38;5114300;28;20280;-56
2023/07/26 05:24:49;;;;;;;0.10;0.10;;;;;;;13.26;100.00;98770.66;5113407;28;20324;-57
2023/07/26 05:27:36;;;;;;;0.10;0.10;;;;;;;13.25;100.00;98771.63;5114051;28;20186;-56
2023/07/26 05:30:23;;;;;;;0.10;0.10;;;;;;;13.26;100.00;98772.47;5114463;28;20198;-56
2023/07/26 05:33:11;;;;;;;0.10;0.10;;;;;;;13.27;100.00;98772.34;5114499;28;20192;-56
2023/07/26 05:35:58;;;;;;;0.10;0.10;;;;;;;13.25;100.00;98781.44;5114032;28;20225;-56
2023/07/26 05:38:45;;;;;;;0.10;0.10;;;;;;;13.13;100.00;98781.44;5113175;28;20239;-56
2023/07/26 05:41:32;;;;;;;0.10;0.10;;;;;;;13.15;100.00;98779.47;5114462;28;20213;-56
2023/07/26 05:44:19;;;;;;;0.20;0.20;;;;;;;13.27;100.00;98779.50;5114450;28;20260;-56
2023/07/26 05:47:06;;;;;;;0.10;0.10;;;;;;;13.26;100.00;98789.28;5114288;28;20181;-56
2023/07/26 05:49:55;;;;;;;0.10;0.10;;;;;;;13.40;100.00;98786.34;5114129;28;20197;-57
2023/07/26 05:52:43;;;;;;;0.10;0.10;;;;;;;13.36;100.00;98784.06;5114283;28;20404;-56
2023/07/26 05:55:31;;;;;;;0.10;0.10;;;;;;;13.45;100.00;98789.47;5112662;28;20226;-57
2023/07/26 05:58:18;;;;;;;0.10;0.10;;;;;;;13.41;100.00;98782.72;5114148;28;20186;-56
2023/07/26 06:01:05;;;;;;;0.10;0.10;;;;;;;13.60;100.00;98789.19;5114039;28;20189;-56
2023/07/26 06:03:52;;;;;;;0.10;0.10;;;;;;;13.61;100.00;98791.75;5114129;28;20251;-56
2023/07/26 06:06:40;;;;;;;0.10;0.10;;;;;;;13.57;100.00;98787.63;5113990;28;20288;-56
2023/07/26 06:09:29;;;;;;;0.10;0.10;;;;;;;13.70;100.00;98798.09;5112767;28;20256;-57
2023/07/26 06:12:16;;;;;;;0.10;0.10;;;;;;;13.60;100.00;98795.34;5113795;28;20201;-57
2023/07/26 06:15:02;;;;;;;0.10;0.10;;;;;;;13.65;100.00;98803.81;5113779;28;20332;-56
2023/07/26 06:17:49;;;;;;;0.10;0.10;;;;;;;13.62;100.00;98806.72;5113749;28;20202;-56
2023/07/26 06:20:36;;;;;;;0.10;0.10;;;;;;;13.51;100.00;98811.22;5113848;28;20202;-57
2023/07/26 06:23:24;;;;;;;0.10;0.10;;;;;;;13.65;100.00;98818.94;5113694;28;20198;-56
2023/07/26 06:26:11;;;;;;;0.10;0.10;;;;;;;13.65;100.00;98811.78;5113628;28;20239;-56
2023/07/26 06:28:58;;;;;;;0.10;0.10;;;;;;;13.76;100.00;98824.22;5113641;28;20251;-56
2023/07/26 06:31:45;;;;;;;0.20;0.20;;;;;;;13.74;100.00;98820.84;5113484;28;20693;-56
2023/07/26 06:34:32;;;;;;;0.10;0.10;;;;;;;13.77;100.00;98815.25;5113194;28;20739;-56
2023/07/26 06:37:19;;;;;;;0.10;0.10;;;;;;;13.75;100.00;98815.38;5113492;28;20667;-56
2023/07/26 06:40:08;;;;;;;0.20;0.20;;;;;;;13.86;100.00;98814.50;5112098;28;20198;-56
2023/07/26 06:42:55;;;;;;;0.10;0.10;;;;;;;14.00;100.00;98819.53;5112991;28;20259;-56
2023/07/26 06:45:45;;;;;;;0.10;0.10;;;;;;;14.09;100.00;98815.25;5113387;28;20190;-56
2023/07/26 06:48:31;;;;;;;0.10;0.10;;;;;;;14.11;100.00;98817.78;5113315;28;20197;-56
2023/07/26 06:51:18;;;;;;;0.10;0.10;;;;;;;13.97;100.00;98819.75;5113376;28;20764;-56
2023/07/26 06:54:05;;;;;;;0.10;0.10;;;;;;;14.10;100.00;98816.94;5111960;28;20228;-56
2023/07/26 06:56:54;;;;;;;0.10;0.10;;;;;;;14.42;100.00;98813.38;5113023;28;20224;-56
2023/07/26 06:59:40;;;;;;;0.10;0.10;;;;;;;14.52;100.00;98809.81;5113184;28;20202;-57
2023/07/26 07:02:27;;;;;;;0.10;0.10;;;;;;;14.54;100.00;98805.19;5113137;28;20223;-56
2023/07/26 07:05:15;;;;;;;0.10;0.10;;;;;;;14.71;100.00;98808.22;5113171;28;20236;-56
2023/07/26 07:08:02;;;;;;;0.10;0.10;;;;;;;14.91;100.00;98801.16;5113156;28;20186;-56
2023/07/26 07:10:48;;;;;;;0.10;0.10;;;;;;;15.15;100.00;98799.84;5112072;28;20232;-57
2023/07/26 07:13:37;;;;;;;0.10;0.10;;;;;;;15.05;100.00;98804.28;5113030;28;20201;-56
2023/07/26 07:16:24;;;;;;;0.10;0.10;;;;;;;15.06;100.00;98800.66;5112951;28;20222;-56
2023/07/26 07:19:11;;;;;;;0.10;0.10;;;;;;;15.14;100.00;98805.28;5113080;28;20190;-56
2023/07/26 07:21:58;;;;;;;0.10;0.10;;;;;;;15.31;100.00;98799.31;5112035;28;20213;-56
2023/07/26 07:24:44;;;;;;;0.10;0.10;;;;;;;15.31;100.00;98801.13;5111759;28;20256;-57
2023/07/26 07:27:32;;;;;;;0.10;0.10;;;;;;;15.41;100.00;98792.16;5113049;28;20190;-57
2023/07/26 07:30:20;;;;;;;0.10;0.10;;;;;;;15.85;100.00;98797.19;5112966;28;20270;-57
2023/07/26 07:33:06;;;;;;;0.10;0.10;;;;;;;15.87;100.00;98788.03;5112992;28;20684;-57
2023/07/26 07:35:53;;;;;;;0.10;0.10;;;;;;;16.37;100.00;98793.19;5112884;28;20214;-56
2023/07/26 07:38:40;;;;;;;0.10;0.10;;;;;;;16.63;100.00;98793.41;5111807;28;20220;-56
2023/07/26 07:41:27;;;;;;;0.10;0.10;;;;;;;16.45;100.00;98785.28;5112854;28;20194;-56
2023/07/26 07:44:14;;;;;;;0.10;0.10;;;;;;;16.42;100.00;98785.59;5112860;28;20202;-56
2023/07/26 07:47:02;;;;;;;0.10;0.10;;;;;;;16.83;100.00;98792.38;5112827;28;20190;-56
2023/07/26 07:49:52;;;;;;;0.10;0.10;;;;;;;16.82;100.00;98790.69;5112813;28;20187;-56
2023/07/26 07:52:39;;;;;;;0.10;0.10;;;;;;;16.94;100.00;98791.34;5112602;28;20189;-57
2023/07/26 07:55:25;;;;;;;0.10;0.10;;;;;;;16.93;100.00;98795.03;5113422;28;20260;-56
2023/07/26 07:58:12;;;;;;;0.10;0.10;;;;;;;16.86;100.00;98793.91;5116414;28;20198;-56
2023/07/26 08:00:59;;;;;;;0.10;0.10;;;;;;;17.23;100.00;98788.53;5116430;28;20209;-56
2023/07/26 08:03:47;;;;;;;0.10;0.10;;;;;;;17.21;100.00;98787.00;5115438;28;20197;-56
2023/07/26 08:06:34;;;;;;;0.10;0.10;;;;;;;17.39;100.00;98795.91;5116300;28;20190;-56
2023/07/26 08:09:21;;;;;;;0.10;0.10;;;;;;;17.52;100.00;98791.03;5114848;28;20197;-56
2023/07/26 08:12:09;;;;;;;0.10;0.10;;;;;;;17.26;100.00;98796.25;5116021;28;20213;-56
2023/07/26 08:14:55;;;;;;;0.10;0.10;;;;;;;17.26;100.00;98790.06;5116124;28;20193;-56
2023/07/26 08:17:42;;;;;;;0.10;0.10;;;;;;;17.88;100.00;98789.25;5115878;28;20213;-56
2023/07/26 08:20:34;;;;;;;0.10;0.10;;;;;;;18.12;100.00;98793.13;5115843;28;20350;-56
2023/07/26 08:23:21;;;;;;;0.10;0.10;;;;;;;18.22;100.00;98786.66;5115740;28;20197;-56
2023/07/26 08:26:09;;;;;;;0.10;0.10;;;;;;;18.13;100.00;98781.41;5116014;28;20274;-56
2023/07/26 08:28:56;;;;;;;0.10;0.10;;;;;;;18.45;100.00;98778.97;5115636;28;20267;-56
2023/07/26 08:31:43;;;;;;;0.10;0.10;;;;;;;18.43;100.00;98782.78;5115819;28;20194;-56
2023/07/26 08:34:29;;;;;;;0.10;0.10;;;;;;;18.75;100.00;98774.16;5115569;28;20245;-56
2023/07/26 08:37:18;;;;;;;0.10;0.10;;;;;;;18.91;100.00;98776.06;5114918;28;20328;-56
2023/07/26 08:40:07;;;;;;;0.10;0.10;;;;;;;18.98;100.00;98769.06;5114406;28;20185;-56
2023/07/26 08:42:56;;;;;;;0.10;0.10;;;;;;;18.50;100.00;98768.59;5115335;28;20187;-56
2023/07/26 08:45:43;;;;;;;0.10;0.10;;;;;;;18.59;100.00;98773.03;5115476;28;20203;-56
2023/07/26 08:48:30;;;;;;;0.10;0.10;;;;;;;18.19;100.00;98767.38;5115505;28;20194;-56
2023/07/26 08:51:19;;;;;;;0.10;0.10;;;;;;;18.66;100.00;98765.22;5115547;28;20183;-56
2023/07/26 08:54:07;;;;;;;0.10;0.10;;;;;;;18.87;100.00;98770.19;5113971;28;20439;-56
2023/07/26 08:56:54;;;;;;;0.10;0.10;;;;;;;19.00;100.00;98761.69;5115209;28;20218;-56
2023/07/26 08:59:41;;;;;;;0.10;0.10;;;;;;;19.07;100.00;98760.03;5115357;28;20202;-56
2023/07/26 09:02:28;;;;;;;0.10;0.10;;;;;;;18.99;100.00;98751.94;5115157;28;20244;-56
2023/07/26 09:05:15;;;;;;;0.00;0.00;;;;;;;19.57;100.00;98753.81;5114782;28;20208;-56
2023/07/26 09:08:02;;;;;;;0.10;0.10;;;;;;;19.13;100.00;98757.56;5115009;28;20225;-56
2023/07/26 09:10:50;;;;;;;0.10;0.10;;;;;;;19.39;100.00;98746.69;5113667;28;20239;-56
2023/07/26 09:13:37;;;;;;;0.10;0.10;;;;;;;19.39;100.00;98741.34;5115054;28;20195;-56
2023/07/26 09:16:28;;;;;;;0.10;0.10;;;;;;;19.46;100.00;98744.22;5114936;28;20198;-56
2023/07/26 09:19:15;;;;;;;0.10;0.10;;;;;;;19.33;100.00;98746.53;5115010;28;20269;-56
2023/07/26 09:22:03;;;;;;;0.10;0.10;;;;;;;19.28;100.00;98732.75;5114774;28;20193;-56
2023/07/26 09:24:51;;;;;;;0.10;0.10;;;;;;;19.40;100.00;98736.84;5113450;28;20198;-56
2023/07/26 09:27:53;;;;;;;0.10;0.10;;;;;;;19.56;100.00;98747.63;5114854;28;20201;-56
2023/07/26 09:30:40;;;;;;;0.10;0.10;;;;;;;19.40;97.39;98743.03;5114649;28;20324;-56
2023/07/26 09:33:28;;;;;;;0.10;0.10;;;;;;;19.55;96.11;98745.91;5114539;28;20264;-56
2023/07/26 09:36:15;;;;;;;0.10;0.10;;;;;;;19.79;94.92;98736.25;5114559;28;20185;-56
2023/07/26 09:39:04;;;;;;;0.10;0.10;;;;;;;19.90;94.67;98743.97;5113163;28;20190;-56
2023/07/26 09:41:51;;;;;;;0.10;0.10;;;;;;;20.12;92.60;98742.44;5114307;28;20378;-56
2023/07/26 09:44:40;;;;;;;0.10;0.10;;;;;;;20.42;93.07;98740.88;5114470;28;20263;-57
2023/07/26 09:47:36;;;;;;;0.10;0.10;;;;;;;20.41;91.06;98731.16;5114376;28;20269;-56
2023/07/26 09:50:28;;;;;;;0.10;0.10;;;;;;;21.27;88.87;98725.84;5114246;28;20320;-56
2023/07/26 09:53:19;;;;;;;0.10;0.10;;;;;;;21.29;84.49;98729.19;5114276;28;20668;-56
2023/07/26 09:56:07;;;;;;;0.10;0.10;;;;;;;20.36;83.35;98722.72;5114227;28;20198;-56
2023/07/26 09:58:54;;;;;;;0.10;0.10;;;;;;;19.60;86.07;98721.28;5113818;28;20336;-56
2023/07/26 10:01:45;;;;;;;0.10;0.10;;;;;;;19.22;89.00;98711.94;5114264;28;20190;-56
2023/07/26 10:04:38;;;;;;;0.10;0.10;;;;;;;18.76;94.11;98712.28;5110937;28;20220;-56
2023/07/26 10:07:26;;;;;;;0.10;0.10;;;;;;;18.74;97.59;98706.25;5113177;28;20241;-56
2023/07/26 10:10:16;;;;;;;0.10;0.10;;;;;;;18.64;100.00;98710.84;5111118;28;20679;-57
2023/07/26 10:13:05;;;;;;;0.10;0.10;;;;;;;18.30;100.00;98718.88;5112718;28;20328;-57
2023/07/26 10:15:53;;;;;;;0.10;0.10;;;;;;;18.24;100.00;98723.03;5113086;28;20293;-56
2023/07/26 10:18:42;;;;;;;0.10;0.10;;;;;;;18.28;100.00;98724.38;5111990;28;20261;-57
2023/07/26 10:21:30;;;;;;;0.10;0.10;;;;;;;18.47;100.00;98722.50;5112765;28;20197;-57
2023/07/26 10:24:21;;;;;;;0.10;0.10;;;;;;;18.57;100.00;98716.00;5111280;28;20190;-57
2023/07/26 10:27:09;;;;;;;0.10;0.10;;;;;;;19.20;100.00;98722.81;5112669;28;20194;-57
2023/07/26 10:29:55;;;;;;;0.10;0.10;;;;;;;19.11;100.00;98724.66;5112665;28;20198;-57
2023/07/26 10:32:48;;;;;;;0.10;0.10;;;;;;;18.97;100.00;98716.38;5112555;28;20193;-57
2023/07/26 10:35:36;;;;;;;0.10;0.10;;;;;;;18.71;100.00;98719.13;5112041;28;20234;-57
2023/07/26 10:38:23;;;;;;;0.10;0.10;;;;;;;18.66;100.00;98718.78;5112234;28;20224;-57
2023/07/26 10:41:27;;;;;;;0.10;0.10;;;;;;;18.85;100.00;98715.84;5112111;28;20209;-57
2023/07/26 10:44:14;;;;;;;0.10;0.10;;;;;;;19.04;100.00;98723.63;5111491;28;20267;-57
2023/07/26 10:47:03;;;;;;;0.10;0.10;;;;;;;19.44;100.00;98708.63;5112590;28;20229;-57
2023/07/26 10:49:51;;;;;;;0.10;0.10;;;;;;;20.40;100.00;98711.47;5112321;28;20766;-57
2023/07/26 10:52:43;;;;;;;0.10;0.10;;;;;;;21.35;100.00;98701.53;5112529;28;20194;-57
2023/07/26 10:55:31;;;;;;;0.10;0.10;;;;;;;20.98;93.21;98713.00;5111041;28;20206;-57
2023/07/26 10:58:18;;;;;;;0.10;0.10;;;;;;;20.40;95.13;98735.69;5112001;28;20218;-57
2023/07/26 11:01:05;;;;;;;0.10;0.10;;;;;;;17.37;100.00;98768.44;5112343;28;20194;-57
2023/07/26 11:03:56;;;;;;;0.10;0.10;;;;;;;15.62;100.00;98751.19;5112022;28;20240;-57
2023/07/26 11:06:55;;;;;;;0.10;0.10;;;;;;;14.97;100.00;98744.63;5112450;28;20255;-57
2023/07/26 11:09:44;;;;;;;0.10;0.10;;;;;;;14.86;100.00;98748.22;5110925;28;20193;-57
2023/07/26 11:12:31;;;;;;;0.10;0.10;;;;;;;15.16;100.00;98744.66;5111924;28;20198;-57
2023/07/26 11:15:31;;;;;;;0.10;0.10;;;;;;;16.10;100.00;98748.50;5112267;28;20232;-57
2023/07/26 11:18:42;;;;;;;0.10;0.10;;;;;;;18.45;100.00;98730.69;5111739;28;20328;-57
2023/07/26 11:21:29;;;;;;;0.13;0.13;;;;;;;20.85;100.00;98724.31;5112284;28;20256;-57
2023/07/26 11:24:15;;;;;;;0.10;0.10;;;;;;;21.52;100.00;98725.66;5110140;28;20235;-57
2023/07/26 11:27:08;;;;;;;0.10;0.10;;;;;;;23.05;100.00;98716.31;5111712;28;20236;-58
2023/07/26 11:29:55;;;;;;;0.10;0.10;;;;;;;22.22;100.00;98715.53;5115372;28;20244;-57
2023/07/26 11:32:44;;;;;;;0.10;0.10;;;;;;;21.14;100.00;98720.16;5116043;28;20260;-57
2023/07/26 11:35:39;;;;;;;0.10;0.10;;;;;;;20.66;100.00;98710.44;5115795;28;20226;-59
2023/07/26 11:38:27;;;;;;;0.10;0.10;;;;;;;20.79;100.00;98718.78;5115393;28;20644;-57
2023/07/26 11:41:18;;;;;;;0.10;0.10;;;;;;;20.26;100.00;98733.69;5115665;28;20231;-57
2023/07/26 11:44:06;;;;;;;0.10;0.10;;;;;;;18.50;100.00;98746.31;5115775;28;20684;-57
2023/07/26 11:46:53;;;;;;;0.10;0.10;;;;;;;19.79;100.00;98738.94;5115880;28;20240;-56
2023/07/26 11:49:41;;;;;;;0.10;0.10;;;;;;;21.54;100.00;98737.97;5115476;28;20190;-56
2023/07/26 11:52:28;;;;;;;0.10;0.10;;;;;;;22.11;100.00;98740.28;5115823;28;20206;-56
2023/07/26 11:55:15;;;;;;;0.10;0.10;;;;;;;23.40;86.86;98734.41;5114105;28;20710;-57
2023/07/26 11:58:03;;;;;;;0.10;0.10;;;;;;;24.10;83.27;98743.69;5115487;28;20201;-57
2023/07/26 12:00:51;;;;;;;0.00;0.00;;;;;;;24.03;81.71;98740.09;5115551;28;20194;-57
2023/07/26 12:03:38;;;;;;;0.10;0.10;;;;;;;25.45;75.20;98735.16;5115147;28;20258;-57
2023/07/26 12:06:29;;;;;;;0.10;0.10;;;;;;;25.88;70.27;98730.28;5115364;28;20313;-57
2023/07/26 12:09:18;;;;;;;0.10;0.10;;;;;;;27.57;59.20;98718.66;5114366;28;20304;-57
2023/07/26 12:12:06;;;;;;;0.10;0.10;;;;;;;26.27;63.61;98725.09;5115003;28;20356;-57
2023/07/26 12:14:53;;;;;;;0.00;0.00;;;;;;;26.74;55.27;98734.88;5114291;28;20328;-57
2023/07/26 12:18:09;;;;;;;0.03;0.03;;;;;;;25.87;57.23;98728.63;5114702;28;20240;-57
2023/07/26 12:20:58;;;;;;;0.00;0.00;;;;;;;26.19;54.54;98729.69;5115345;28;20589;-56
2023/07/26 12:23:54;;;;;;;0.00;0.00;;;;;;;26.35;52.60;98716.72;5113863;28;20214;-57
2023/07/26 12:26:44;;;;;;;0.10;0.10;;;;;;;25.96;50.48;98726.50;5114702;28;20189;-57
2023/07/26 12:29:30;;;;;;;0.00;0.00;;;;;;;26.05;53.71;98706.25;5115246;28;20187;-57
2023/07/26 12:32:17;;;;;;;0.10;0.10;;;;;;;24.63;60.06;98718.91;5114460;28;20476;-57
2023/07/26 12:35:20;;;;;;;0.00;0.00;;;;;;;25.97;55.21;98717.34;5114497;28;20340;-57
2023/07/26 12:38:11;;;;;;;0.00;0.00;;;;;;;27.00;51.51;98714.91;5112113;28;20189;-57
2023/07/26 12:40:58;;;;;;;0.00;0.00;;;;;;;27.82;45.28;98716.88;5093556;28;20206;-57
2023/07/26 12:43:52;;;;;;;0.00;0.00;;;;;;;29.17;45.31;98713.53;5094427;28;20248;-57
2023/07/26 12:46:41;;;;;;;0.00;0.00;;;;;;;29.63;44.12;98721.13;5094422;28;20241;-58
2023/07/26 12:49:31;;;;;;;0.00;0.00;;;;;;;29.04;43.52;98728.13;5094283;28;20195;-58
2023/07/26 12:52:19;;;;;;;0.00;0.00;;;;;;;30.84;39.62;98716.22;5094232;28;20293;-57
2023/07/26 12:55:07;;;;;;;0.03;0.03;;;;;;;30.89;39.69;98724.53;5092470;28;20219;-58
2023/07/26 12:57:54;;;;;;;0.00;0.00;;;;;;;31.11;39.14;98714.59;5094145;28;20267;-58
2023/07/26 13:00:41;;;;;;;0.00;0.00;;;;;;;32.18;40.06;98714.75;5094214;28;20260;-58
2023/07/26 13:03:28;;;;;;;0.00;0.00;;;;;;;31.20;40.27;98724.13;5093768;28;20276;-58